sensor_id;sensor_type;location;lat;lon;timestamp;pressure;altitude;pressure_sealevel;temperature;humidity
19526;BME280;9907;42.676;26.348;2023-04-20T00:01:47;98424.59;;;9.79;100.00
19526;BME280;9907;42.676;26.348;2023-04-20T00:04:15;98420.28;;;9.78;100.00
19526;BME280;9907;42.676;26.348;2023-04-20T00:06:42;98412.28;;;9.78;100.00
19526;BME280;9907;42.676;26.348;2023-04-20T00:09:09;98414.44;;;9.93;100.00
19526;BME280;9907;42.676;26.348;2023-04-20T00:11:35;98415.75;;;10.06;100.00
19526;BME280;9907;42.676;26.348;2023-04-20T00:14:00;98409.94;;;9.93;100.00
19526;BME280;9907;42.676;26.348;2023-04-20T00:16:26;98409.69;;;9.87;100.00
19526;BME280;9907;42.676;26.348;2023-04-20T00:18:52;98395.69;;;10.02;100.00
19526;BME280;9907;42.676;26.348;2023-04-20T00:21:17;98398.81;;;9.98;100.00
19526;BME280;9907;42.676;26.348;2023-04-20T00:23:46;98404.75;;;9.92;100.00
19526;BME280;9907;42.676;26.348;2023-04-20T00:26:11;98401.19;;;10.01;100.00
19526;BME280;9907;42.676;26.348;2023-04-20T00:28:37;98402.41;;;10.16;100.00
19526;BME280;9907;42.676;26.348;2023-04-20T00:31:02;98399.16;;;10.12;100.00
19526;BME280;9907;42.676;26.348;2023-04-20T00:33:28;98401.97;;;10.11;100.00
19526;BME280;9907;42.676;26.348;2023-04-20T00:35:53;98402.19;;;10.00;100.00
19526;BME280;9907;42.676;26.348;2023-04-20T00:38:20;98400.66;;;9.97;100.00
19526;BME280;9907;42.676;26.348;2023-04-20T00:40:45;98396.25;;;10.06;100.00
19526;BME280;9907;42.676;26.348;2023-04-20T00:43:18;98401.19;;;10.01;100.00
19526;BME280;9907;42.676;26.348;2023-04-20T00:45:44;98399.81;;;9.97;100.00
19526;BME280;9907;42.676;26.348;2023-04-20T00:48:10;98397.25;;;10.05;100.00
19526;BME280;9907;42.676;26.348;2023-04-20T00:50:37;98398.97;;;9.96;100.00
19526;BME280;9907;42.676;26.348;2023-04-20T00:53:03;98400.16;;;9.84;100.00
19526;BME280;9907;42.676;26.348;2023-04-20T00:55:29;98397.19;;;9.87;100.00
19526;BME280;9907;42.676;26.348;2023-04-20T00:57:55;98394.78;;;9.94;100.00
19526;BME280;9907;42.676;26.348;2023-04-20T01:00:21;98387.03;;;10.00;100.00
19526;BME280;9907;42.676;26.348;2023-04-20T01:02:47;98391.41;;;9.92;100.00
19526;BME280;9907;42.676;26.348;2023-04-20T01:05:12;98399.06;;;9.77;100.00
19526;BME280;9907;42.676;26.348;2023-04-20T01:07:38;98392.22;;;9.74;100.00
19526;BME280;9907;42.676;26.348;2023-04-20T01:10:05;98391.19;;;9.75;100.00
19526;BME280;9907;42.676;26.348;2023-04-20T01:12:31;98386.78;;;9.94;100.00
19526;BME280;9907;42.676;26.348;2023-04-20T01:14:56;98391.84;;;9.87;100.00
19526;BME280;9907;42.676;26.348;2023-04-20T01:17:22;98390.94;;;9.78;100.00
19526;BME280;9907;42.676;26.348;2023-04-20T01:19:49;98378.78;;;9.66;100.00
19526;BME280;9907;42.676;26.348;2023-04-20T01:22:18;98384.41;;;9.63;100.00
19526;BME280;9907;42.676;26.348;2023-04-20T01:24:44;98387.81;;;9.56;100.00
19526;BME280;9907;42.676;26.348;2023-04-20T01:27:10;98385.56;;;9.51;100.00
19526;BME280;9907;42.676;26.348;2023-04-20T01:29:36;98385.56;;;9.51;100.00
19526;BME280;9907;42.676;26.348;2023-04-20T01:32:02;98390.47;;;9.56;100.00
19526;BME280;9907;42.676;26.348;2023-04-20T01:34:28;98389.69;;;9.46;100.00
19526;BME280;9907;42.676;26.348;2023-04-20T01:36:53;98384.19;;;9.47;100.00
19526;BME280;9907;42.676;26.348;2023-04-20T01:39:18;98381.81;;;9.44;100.00
19526;BME280;9907;42.676;26.348;2023-04-20T01:41:44;98388.22;;;9.51;100.00
19526;BME280;9907;42.676;26.348;2023-04-20T01:44:10;98390.72;;;9.62;100.00
19526;BME280;9907;42.676;26.348;2023-04-20T01:46:39;98382.41;;;9.65;100.00
19526;BME280;9907;42.676;26.348;2023-04-20T01:49:05;98383.81;;;9.69;100.00
19526;BME280;9907;42.676;26.348;2023-04-20T01:51:32;98389.31;;;9.68;100.00
19526;BME280;9907;42.676;26.348;2023-04-20T01:53:59;98385.31;;;9.72;100.00
19526;BME280;9907;42.676;26.348;2023-04-20T01:56:24;98380.69;;;9.74;100.00
19526;BME280;9907;42.676;26.348;2023-04-20T01:58:50;98388.16;;;9.70;100.00
19526;BME280;9907;42.676;26.348;2023-04-20T02:01:15;98387.84;;;9.73;100.00
19526;BME280;9907;42.676;26.348;2023-04-20T02:03:41;98377.13;;;9.56;100.00
19526;BME280;9907;42.676;26.348;2023-04-20T02:06:07;98374.03;;;9.60;100.00
19526;BME280;9907;42.676;26.348;2023-04-20T02:08:32;98371.94;;;9.54;100.00
19526;BME280;9907;42.676;26.348;2023-04-20T02:10:58;98372.38;;;9.50;100.00
19526;BME280;9907;42.676;26.348;2023-04-20T02:13:23;98365.75;;;9.54;100.00
19526;BME280;9907;42.676;26.348;2023-04-20T02:15:49;98376.47;;;9.44;100.00
19526;BME280;9907;42.676;26.348;2023-04-20T02:18:16;98361.16;;;9.46;100.00
19526;BME280;9907;42.676;26.348;2023-04-20T02:20:43;98376.59;;;9.52;100.00
19526;BME280;9907;42.676;26.348;2023-04-20T02:23:09;98373.56;;;9.65;100.00
19526;BME280;9907;42.676;26.348;2023-04-20T02:25:35;98378.09;;;9.64;100.00
19526;BME280;9907;42.676;26.348;2023-04-20T02:28:00;98371.63;;;9.57;100.00
19526;BME280;9907;42.676;26.348;2023-04-20T02:30:26;98372.28;;;9.42;100.00
19526;BME280;9907;42.676;26.348;2023-04-20T02:32:51;98374.66;;;9.35;100.00
19526;BME280;9907;42.676;26.348;2023-04-20T02:35:17;98366.28;;;9.30;100.00
19526;BME280;9907;42.676;26.348;2023-04-20T02:37:43;98361.66;;;9.32;100.00
19526;BME280;9907;42.676;26.348;2023-04-20T02:40:09;98356.28;;;9.42;100.00
19526;BME280;9907;42.676;26.348;2023-04-20T02:42:35;98359.31;;;9.56;100.00
19526;BME280;9907;42.676;26.348;2023-04-20T02:45:01;98358.97;;;9.69;100.00
19526;BME280;9907;42.676;26.348;2023-04-20T02:47:27;98358.59;;;9.64;100.00
19526;BME280;9907;42.676;26.348;2023-04-20T02:49:52;98361.38;;;9.62;100.00
19526;BME280;9907;42.676;26.348;2023-04-20T02:52:17;98362.28;;;9.81;100.00
19526;BME280;9907;42.676;26.348;2023-04-20T02:54:43;98369.28;;;9.82;100.00
19526;BME280;9907;42.676;26.348;2023-04-20T02:57:08;98371.19;;;9.71;100.00
19526;BME280;9907;42.676;26.348;2023-04-20T02:59:36;98356.81;;;9.82;100.00
19526;BME280;9907;42.676;26.348;2023-04-20T03:02:01;98363.44;;;9.96;100.00
19526;BME280;9907;42.676;26.348;2023-04-20T03:04:27;98360.16;;;10.02;100.00
19526;BME280;9907;42.676;26.348;2023-04-20T03:06:52;98357.81;;;9.99;100.00
19526;BME280;9907;42.676;26.348;2023-04-20T03:09:18;98351.19;;;10.03;100.00
19526;BME280;9907;42.676;26.348;2023-04-20T03:11:44;98356.22;;;10.06;100.00
19526;BME280;9907;42.676;26.348;2023-04-20T03:14:10;98365.19;;;10.14;100.00
19526;BME280;9907;42.676;26.348;2023-04-20T03:16:35;98356.75;;;10.19;100.00
19526;BME280;9907;42.676;26.348;2023-04-20T03:19:01;98359.41;;;10.19;100.00
19526;BME280;9907;42.676;26.348;2023-04-20T03:21:27;98359.28;;;10.11;100.00
19526;BME280;9907;42.676;26.348;2023-04-20T03:23:52;98363.06;;;10.18;100.00
19526;BME280;9907;42.676;26.348;2023-04-20T03:26:18;98363.72;;;10.20;100.00
19526;BME280;9907;42.676;26.348;2023-04-20T03:28:44;98368.25;;;10.19;100.00
19526;BME280;9907;42.676;26.348;2023-04-20T03:31:10;98368.19;;;10.29;100.00
19526;BME280;9907;42.676;26.348;2023-04-20T03:33:38;98360.25;;;10.37;100.00
19526;BME280;9907;42.676;26.348;2023-04-20T03:36:03;98372.75;;;10.37;100.00
19526;BME280;9907;42.676;26.348;2023-04-20T03:38:30;98374.44;;;10.38;100.00
19526;BME280;9907;42.676;26.348;2023-04-20T03:40:55;98371.59;;;10.39;100.00
19526;BME280;9907;42.676;26.348;2023-04-20T03:43:20;98375.97;;;10.40;100.00
19526;BME280;9907;42.676;26.348;2023-04-20T03:45:46;98375.66;;;10.43;100.00
19526;BME280;9907;42.676;26.348;2023-04-20T03:48:11;98374.66;;;10.44;100.00
19526;BME280;9907;42.676;26.348;2023-04-20T03:50:37;98381.53;;;10.47;100.00
19526;BME280;9907;42.676;26.348;2023-04-20T03:53:02;98382.38;;;10.47;100.00
19526;BME280;9907;42.676;26.348;2023-04-20T03:55:28;98387.41;;;10.50;100.00
19526;BME280;9907;42.676;26.348;2023-04-20T03:57:53;98386.03;;;10.46;100.00
19526;BME280;9907;42.676;26.348;2023-04-20T04:00:19;98392.59;;;10.52;100.00
19526;BME280;9907;42.676;26.348;2023-04-20T04:02:45;98390.78;;;10.52;100.00
19526;BME280;9907;42.676;26.348;2023-04-20T04:05:10;98396.09;;;10.52;100.00
19526;BME280;9907;42.676;26.348;2023-04-20T04:07:35;98394.13;;;10.54;100.00
19526;BME280;9907;42.676;26.348;2023-04-20T04:10:01;98397.31;;;10.58;100.00
19526;BME280;9907;42.676;26.348;2023-04-20T04:12:28;98393.53;;;10.60;100.00
19526;BME280;9907;42.676;26.348;2023-04-20T04:14:54;98394.50;;;10.59;100.00
19526;BME280;9907;42.676;26.348;2023-04-20T04:17:20;98392.69;;;10.60;100.00
19526;BME280;9907;42.676;26.348;2023-04-20T04:19:45;98394.50;;;10.59;100.00
19526;BME280;9907;42.676;26.348;2023-04-20T04:22:11;98393.03;;;10.65;100.00
19526;BME280;9907;42.676;26.348;2023-04-20T04:24:36;98397.28;;;10.75;100.00
19526;BME280;9907;42.676;26.348;2023-04-20T04:27:03;98392.72;;;10.68;100.00
19526;BME280;9907;42.676;26.348;2023-04-20T04:29:29;98389.47;;;10.74;100.00
19526;BME280;9907;42.676;26.348;2023-04-20T04:31:55;98383.66;;;10.79;100.00
19526;BME280;9907;42.676;26.348;2023-04-20T04:34:22;98396.00;;;10.80;100.00
19526;BME280;9907;42.676;26.348;2023-04-20T04:36:48;98396.72;;;10.82;100.00
19526;BME280;9907;42.676;26.348;2023-04-20T04:39:14;98398.38;;;10.83;100.00
19526;BME280;9907;42.676;26.348;2023-04-20T04:41:39;98394.69;;;10.84;100.00
19526;BME280;9907;42.676;26.348;2023-04-20T04:44:05;98391.03;;;10.85;100.00
19526;BME280;9907;42.676;26.348;2023-04-20T04:46:30;98394.09;;;10.90;100.00
19526;BME280;9907;42.676;26.348;2023-04-20T04:48:56;98392.16;;;11.00;100.00
19526;BME280;9907;42.676;26.348;2023-04-20T04:51:25;98386.81;;;11.00;100.00
19526;BME280;9907;42.676;26.348;2023-04-20T04:53:50;98390.69;;;11.05;100.00
19526;BME280;9907;42.676;26.348;2023-04-20T04:56:16;98389.31;;;11.19;98.11
19526;BME280;9907;42.676;26.348;2023-04-20T04:58:43;98386.38;;;11.30;98.63
19526;BME280;9907;42.676;26.348;2023-04-20T05:01:10;98385.59;;;11.46;99.68
19526;BME280;9907;42.676;26.348;2023-04-20T05:03:35;98386.50;;;11.54;98.23
19526;BME280;9907;42.676;26.348;2023-04-20T05:06:01;98381.53;;;11.59;96.98
19526;BME280;9907;42.676;26.348;2023-04-20T05:08:27;98383.41;;;11.67;94.28
19526;BME280;9907;42.676;26.348;2023-04-20T05:10:52;98391.84;;;11.80;90.37
19526;BME280;9907;42.676;26.348;2023-04-20T05:13:18;98391.00;;;11.80;90.87
19526;BME280;9907;42.676;26.348;2023-04-20T05:15:43;98390.16;;;11.79;91.75
19526;BME280;9907;42.676;26.348;2023-04-20T05:18:08;98401.94;;;11.94;90.51
19526;BME280;9907;42.676;26.348;2023-04-20T05:20:34;98401.16;;;12.10;89.56
19526;BME280;9907;42.676;26.348;2023-04-20T05:22:59;98393.16;;;12.18;91.98
19526;BME280;9907;42.676;26.348;2023-04-20T05:25:25;98395.34;;;12.23;90.19
19526;BME280;9907;42.676;26.348;2023-04-20T05:27:50;98401.22;;;12.26;86.05
19526;BME280;9907;42.676;26.348;2023-04-20T05:30:16;98394.84;;;12.27;86.81
19526;BME280;9907;42.676;26.348;2023-04-20T05:32:42;98398.25;;;12.53;88.96
19526;BME280;9907;42.676;26.348;2023-04-20T05:35:08;98390.91;;;12.72;85.32
19526;BME280;9907;42.676;26.348;2023-04-20T05:37:33;98391.75;;;13.04;84.84
19526;BME280;9907;42.676;26.348;2023-04-20T05:39:59;98389.56;;;13.32;82.95
19526;BME280;9907;42.676;26.348;2023-04-20T05:42:24;98393.50;;;13.77;76.87
19526;BME280;9907;42.676;26.348;2023-04-20T05:44:50;98385.00;;;14.04;75.40
19526;BME280;9907;42.676;26.348;2023-04-20T05:47:15;98384.66;;;14.07;73.88
19526;BME280;9907;42.676;26.348;2023-04-20T05:49:41;98391.00;;;14.14;73.18
19526;BME280;9907;42.676;26.348;2023-04-20T05:52:06;98383.75;;;14.23;73.04
19526;BME280;9907;42.676;26.348;2023-04-20T05:54:32;98393.94;;;14.27;71.16
19526;BME280;9907;42.676;26.348;2023-04-20T05:56:57;98398.53;;;14.19;70.43
19526;BME280;9907;42.676;26.348;2023-04-20T05:59:23;98386.25;;;14.16;71.24
19526;BME280;9907;42.676;26.348;2023-04-20T06:01:49;98391.66;;;14.08;71.68
19526;BME280;9907;42.676;26.348;2023-04-20T06:04:15;98386.66;;;14.05;72.02
19526;BME280;9907;42.676;26.348;2023-04-20T06:06:40;98387.91;;;14.25;71.68
19526;BME280;9907;42.676;26.348;2023-04-20T06:09:06;98389.44;;;14.81;69.98
19526;BME280;9907;42.676;26.348;2023-04-20T06:11:31;98392.50;;;14.93;68.42
19526;BME280;9907;42.676;26.348;2023-04-20T06:13:57;98381.22;;;14.97;67.47
19526;BME280;9907;42.676;26.348;2023-04-20T06:16:22;98385.25;;;15.16;64.46
19526;BME280;9907;42.676;26.348;2023-04-20T06:18:48;98382.63;;;15.45;65.34
19526;BME280;9907;42.676;26.348;2023-04-20T06:21:14;98384.44;;;15.68;63.56
19526;BME280;9907;42.676;26.348;2023-04-20T06:23:41;98387.03;;;15.76;62.40
19526;BME280;9907;42.676;26.348;2023-04-20T06:26:07;98381.94;;;15.81;63.27
19526;BME280;9907;42.676;26.348;2023-04-20T06:28:34;98381.09;;;15.66;62.23
19526;BME280;9907;42.676;26.348;2023-04-20T06:31:01;98380.28;;;15.42;61.73
19526;BME280;9907;42.676;26.348;2023-04-20T06:33:26;98380.13;;;15.44;61.77
19526;BME280;9907;42.676;26.348;2023-04-20T06:35:52;98380.09;;;15.29;62.54
19526;BME280;9907;42.676;26.348;2023-04-20T06:38:19;98388.50;;;15.26;61.47
19526;BME280;9907;42.676;26.348;2023-04-20T06:40:45;98399.28;;;15.26;60.74
19526;BME280;9907;42.676;26.348;2023-04-20T06:43:10;98402.16;;;15.25;62.32
19526;BME280;9907;42.676;26.348;2023-04-20T06:45:36;98399.66;;;15.23;65.94
19526;BME280;9907;42.676;26.348;2023-04-20T06:48:01;98389.81;;;15.30;67.15
19526;BME280;9907;42.676;26.348;2023-04-20T06:50:27;98396.75;;;15.47;64.22
19526;BME280;9907;42.676;26.348;2023-04-20T06:52:53;98401.88;;;15.57;62.88
19526;BME280;9907;42.676;26.348;2023-04-20T06:55:18;98404.78;;;15.33;61.35
19526;BME280;9907;42.676;26.348;2023-04-20T06:57:44;98398.47;;;15.26;63.04
19526;BME280;9907;42.676;26.348;2023-04-20T07:00:10;98408.03;;;15.28;63.69
19526;BME280;9907;42.676;26.348;2023-04-20T07:02:48;98405.88;;;15.24;64.47
19526;BME280;9907;42.676;26.348;2023-04-20T07:05:15;98411.72;;;15.27;64.53
19526;BME280;9907;42.676;26.348;2023-04-20T07:07:42;98409.47;;;15.16;68.07
19526;BME280;9907;42.676;26.348;2023-04-20T07:10:08;98408.09;;;15.20;65.00
19526;BME280;9907;42.676;26.348;2023-04-20T07:12:35;98411.78;;;15.19;64.63
19526;BME280;9907;42.676;26.348;2023-04-20T07:15:02;98410.16;;;15.33;62.38
19526;BME280;9907;42.676;26.348;2023-04-20T07:17:29;98412.66;;;15.34;65.62
19526;BME280;9907;42.676;26.348;2023-04-20T07:19:55;98408.97;;;15.35;67.62
19526;BME280;9907;42.676;26.348;2023-04-20T07:22:21;98408.50;;;15.46;65.09
19526;BME280;9907;42.676;26.348;2023-04-20T07:24:47;98409.41;;;15.62;62.68
19526;BME280;9907;42.676;26.348;2023-04-20T07:27:14;98409.91;;;15.42;67.18
19526;BME280;9907;42.676;26.348;2023-04-20T07:29:39;98412.78;;;15.41;66.88
19526;BME280;9907;42.676;26.348;2023-04-20T07:32:05;98413.59;;;15.41;67.73
19526;BME280;9907;42.676;26.348;2023-04-20T07:34:30;98409.44;;;15.39;68.39
19526;BME280;9907;42.676;26.348;2023-04-20T07:36:56;98409.81;;;15.36;66.72
19526;BME280;9907;42.676;26.348;2023-04-20T07:39:21;98409.16;;;15.48;66.67
19526;BME280;9907;42.676;26.348;2023-04-20T07:41:48;98407.00;;;15.67;62.88
19526;BME280;9907;42.676;26.348;2023-04-20T07:44:14;98411.09;;;15.63;65.30
19526;BME280;9907;42.676;26.348;2023-04-20T07:46:39;98404.56;;;15.57;67.45
19526;BME280;9907;42.676;26.348;2023-04-20T07:49:05;98402.34;;;15.61;67.22
19526;BME280;9907;42.676;26.348;2023-04-20T07:51:31;98399.66;;;15.61;63.94
19526;BME280;9907;42.676;26.348;2023-04-20T07:53:58;98399.56;;;15.54;60.93
19526;BME280;9907;42.676;26.348;2023-04-20T07:56:24;98402.44;;;15.67;60.85
19526;BME280;9907;42.676;26.348;2023-04-20T07:58:50;98404.56;;;15.72;60.72
19526;BME280;9907;42.676;26.348;2023-04-20T08:01:15;98406.25;;;15.73;59.89
19526;BME280;9907;42.676;26.348;2023-04-20T08:03:41;98406.25;;;15.73;60.21
19526;BME280;9907;42.676;26.348;2023-04-20T08:06:06;98417.56;;;15.83;58.76
19526;BME280;9907;42.676;26.348;2023-04-20T08:08:32;98418.25;;;15.85;60.21
19526;BME280;9907;42.676;26.348;2023-04-20T08:10:57;98415.19;;;15.88;58.10
19526;BME280;9907;42.676;26.348;2023-04-20T08:13:23;98419.09;;;16.00;60.07
19526;BME280;9907;42.676;26.348;2023-04-20T08:15:48;98419.53;;;16.03;59.27
19526;BME280;9907;42.676;26.348;2023-04-20T08:18:14;98425.41;;;16.07;57.45
19526;BME280;9907;42.676;26.348;2023-04-20T08:20:39;98433.94;;;15.96;55.65
19526;BME280;9907;42.676;26.348;2023-04-20T08:23:05;98423.63;;;15.70;55.06
19526;BME280;9907;42.676;26.348;2023-04-20T08:25:31;98438.94;;;15.70;55.63
19526;BME280;9907;42.676;26.348;2023-04-20T08:27:56;98432.25;;;15.66;55.13
19526;BME280;9907;42.676;26.348;2023-04-20T08:30:22;98425.56;;;15.76;55.32
19526;BME280;9907;42.676;26.348;2023-04-20T08:32:48;98424.56;;;15.92;56.33
19526;BME280;9907;42.676;26.348;2023-04-20T08:35:13;98424.09;;;16.03;54.71
19526;BME280;9907;42.676;26.348;2023-04-20T08:37:38;98430.31;;;16.18;54.93
19526;BME280;9907;42.676;26.348;2023-04-20T08:40:06;98435.50;;;16.20;54.90
19526;BME280;9907;42.676;26.348;2023-04-20T08:42:32;98435.09;;;16.23;54.22
19526;BME280;9907;42.676;26.348;2023-04-20T08:44:57;98424.06;;;16.32;54.51
19526;BME280;9907;42.676;26.348;2023-04-20T08:47:24;98425.63;;;16.27;53.84
19526;BME280;9907;42.676;26.348;2023-04-20T08:49:52;98429.63;;;16.31;54.39
19526;BME280;9907;42.676;26.348;2023-04-20T08:52:20;98429.53;;;16.24;54.20
19526;BME280;9907;42.676;26.348;2023-04-20T08:54:45;98421.38;;;16.18;53.34
19526;BME280;9907;42.676;26.348;2023-04-20T08:57:11;98424.91;;;16.33;55.00
19526;BME280;9907;42.676;26.348;2023-04-20T08:59:36;98413.53;;;16.37;54.13
19526;BME280;9907;42.676;26.348;2023-04-20T09:02:12;98415.38;;;16.51;55.69
19526;BME280;9907;42.676;26.348;2023-04-20T09:04:38;98411.94;;;16.58;55.47
19526;BME280;9907;42.676;26.348;2023-04-20T09:07:05;98411.94;;;16.58;54.70
19526;BME280;9907;42.676;26.348;2023-04-20T09:09:31;98419.19;;;16.42;52.22
19526;BME280;9907;42.676;26.348;2023-04-20T09:14:28;98415.13;;;16.32;52.73
19526;BME280;9907;42.676;26.348;2023-04-20T09:16:57;98413.66;;;16.29;51.57
19526;BME280;9907;42.676;26.348;2023-04-20T09:19:29;98422.19;;;16.33;51.54
19526;BME280;9907;42.676;26.348;2023-04-20T09:21:58;98412.47;;;16.17;50.92
19526;BME280;9907;42.676;26.348;2023-04-20T09:24:33;98409.00;;;16.23;52.29
19526;BME280;9907;42.676;26.348;2023-04-20T09:26:59;98413.28;;;16.32;51.64
19526;BME280;9907;42.676;26.348;2023-04-20T09:29:27;98404.44;;;16.38;50.51
19526;BME280;9907;42.676;26.348;2023-04-20T09:31:54;98411.84;;;16.51;50.68
19526;BME280;9907;42.676;26.348;2023-04-20T09:34:21;98405.38;;;16.67;51.90
19526;BME280;9907;42.676;26.348;2023-04-20T09:36:49;98409.19;;;16.72;51.80
19526;BME280;9907;42.676;26.348;2023-04-20T09:39:20;98403.47;;;16.82;52.64
19526;BME280;9907;42.676;26.348;2023-04-20T09:41:47;98400.53;;;16.77;51.21
19526;BME280;9907;42.676;26.348;2023-04-20T09:44:14;98386.84;;;16.78;51.63
19526;BME280;9907;42.676;26.348;2023-04-20T09:46:41;98399.19;;;17.09;53.01
19526;BME280;9907;42.676;26.348;2023-04-20T09:49:08;98387.69;;;17.21;52.23
19526;BME280;9907;42.676;26.348;2023-04-20T09:51:44;98385.72;;;17.36;50.37
19526;BME280;9907;42.676;26.348;2023-04-20T09:54:10;98381.09;;;17.30;50.39
19526;BME280;9907;42.676;26.348;2023-04-20T09:56:37;98374.53;;;17.39;50.08
19526;BME280;9907;42.676;26.348;2023-04-20T09:59:02;98367.63;;;17.58;51.45
19526;BME280;9907;42.676;26.348;2023-04-20T10:01:30;98368.59;;;17.85;51.20
19526;BME280;9907;42.676;26.348;2023-04-20T10:03:58;98366.78;;;17.58;49.84
19526;BME280;9907;42.676;26.348;2023-04-20T10:06:35;98367.06;;;17.41;50.06
19526;BME280;9907;42.676;26.348;2023-04-20T10:09:03;98361.75;;;17.55;52.28
19526;BME280;9907;42.676;26.348;2023-04-20T10:13:55;98358.81;;;17.49;49.08
19526;BME280;9907;42.676;26.348;2023-04-20T10:16:21;98359.06;;;17.55;50.14
19526;BME280;9907;42.676;26.348;2023-04-20T10:19:00;98358.00;;;17.56;49.96
19526;BME280;9907;42.676;26.348;2023-04-20T10:21:30;98352.56;;;17.49;50.07
19526;BME280;9907;42.676;26.348;2023-04-20T10:23:57;98346.88;;;17.59;50.99
19526;BME280;9907;42.676;26.348;2023-04-20T10:26:35;98352.75;;;17.69;50.22
19526;BME280;9907;42.676;26.348;2023-04-20T10:29:01;98344.47;;;17.77;50.23
19526;BME280;9907;42.676;26.348;2023-04-20T10:31:40;98353.03;;;17.87;49.54
19526;BME280;9907;42.676;26.348;2023-04-20T10:34:06;98354.03;;;17.79;48.33
19526;BME280;9907;42.676;26.348;2023-04-20T10:36:35;98350.25;;;17.74;48.75
19526;BME280;9907;42.676;26.348;2023-04-20T10:44:19;98348.56;;;17.66;49.02
19526;BME280;9907;42.676;26.348;2023-04-20T10:46:48;98347.34;;;17.69;48.02
19526;BME280;9907;42.676;26.348;2023-04-20T10:49:14;98353.56;;;17.69;49.08
19526;BME280;9907;42.676;26.348;2023-04-20T10:51:48;98345.50;;;17.76;48.60
19526;BME280;9907;42.676;26.348;2023-04-20T10:54:14;98352.19;;;17.80;48.72
19526;BME280;9907;42.676;26.348;2023-04-20T10:56:47;98349.56;;;17.59;49.37
19526;BME280;9907;42.676;26.348;2023-04-20T10:59:23;98351.34;;;17.51;49.34
19526;BME280;9907;42.676;26.348;2023-04-20T11:01:50;98353.34;;;17.36;49.65
19526;BME280;9907;42.676;26.348;2023-04-20T11:04:16;98350.81;;;17.35;50.00
19526;BME280;9907;42.676;26.348;2023-04-20T11:06:46;98357.38;;;17.26;51.40
19526;BME280;9907;42.676;26.348;2023-04-20T11:09:22;98362.41;;;17.29;51.19
19526;BME280;9907;42.676;26.348;2023-04-20T11:12:01;98362.34;;;17.22;51.00
19526;BME280;9907;42.676;26.348;2023-04-20T11:14:31;98365.47;;;16.98;51.29
19526;BME280;9907;42.676;26.348;2023-04-20T11:16:58;98363.34;;;16.93;51.08
19526;BME280;9907;42.676;26.348;2023-04-20T11:19:34;98369.69;;;16.86;51.24
19526;BME280;9907;42.676;26.348;2023-04-20T11:22:02;98367.13;;;16.99;51.99
19526;BME280;9907;42.676;26.348;2023-04-20T11:24:29;98363.91;;;17.10;52.50
19526;BME280;9907;42.676;26.348;2023-04-20T11:26:56;98357.72;;;17.16;51.97
19526;BME280;9907;42.676;26.348;2023-04-20T11:31:54;98359.53;;;16.81;52.91
19526;BME280;9907;42.676;26.348;2023-04-20T11:34:20;98359.97;;;16.85;52.74
19526;BME280;9907;42.676;26.348;2023-04-20T11:36:46;98351.59;;;16.80;52.95
19526;BME280;9907;42.676;26.348;2023-04-20T11:39:24;98356.59;;;16.83;52.53
19526;BME280;9907;42.676;26.348;2023-04-20T11:41:52;98357.38;;;16.98;53.11
19526;BME280;9907;42.676;26.348;2023-04-20T11:44:19;98348.19;;;16.92;52.31
19526;BME280;9907;42.676;26.348;2023-04-20T11:46:46;98343.75;;;17.06;52.53
19526;BME280;9907;42.676;26.348;2023-04-20T11:49:13;98349.00;;;17.14;51.51
19526;BME280;9907;42.676;26.348;2023-04-20T11:51:39;98343.50;;;17.01;52.95
19526;BME280;9907;42.676;26.348;2023-04-20T11:54:04;98343.22;;;17.17;53.19
19526;BME280;9907;42.676;26.348;2023-04-20T11:56:30;98341.19;;;17.26;52.66
19526;BME280;9907;42.676;26.348;2023-04-20T11:58:56;98339.41;;;17.33;52.43
19526;BME280;9907;42.676;26.348;2023-04-20T12:01:22;98339.13;;;17.28;52.32
19526;BME280;9907;42.676;26.348;2023-04-20T12:03:47;98337.13;;;17.36;52.98
19526;BME280;9907;42.676;26.348;2023-04-20T12:06:13;98340.84;;;17.35;52.22
19526;BME280;9907;42.676;26.348;2023-04-20T12:08:38;98338.69;;;17.24;52.00
19526;BME280;9907;42.676;26.348;2023-04-20T12:11:04;98343.09;;;17.04;52.12
19526;BME280;9907;42.676;26.348;2023-04-20T12:13:29;98346.31;;;17.14;52.45
19526;BME280;9907;42.676;26.348;2023-04-20T12:15:55;98341.50;;;17.10;52.31
19526;BME280;9907;42.676;26.348;2023-04-20T12:18:21;98340.38;;;17.25;52.64
19526;BME280;9907;42.676;26.348;2023-04-20T12:20:47;98342.41;;;17.23;52.30
19526;BME280;9907;42.676;26.348;2023-04-20T12:23:14;98333.63;;;17.15;52.32
19526;BME280;9907;42.676;26.348;2023-04-20T12:25:40;98340.31;;;17.19;51.63
19526;BME280;9907;42.676;26.348;2023-04-20T12:28:05;98330.75;;;17.16;52.31
19526;BME280;9907;42.676;26.348;2023-04-20T12:30:33;98333.31;;;17.24;52.85
19526;BME280;9907;42.676;26.348;2023-04-20T12:33:01;98338.25;;;17.21;53.54
19526;BME280;9907;42.676;26.348;2023-04-20T12:35:26;98339.50;;;16.97;52.65
19526;BME280;9907;42.676;26.348;2023-04-20T12:37:52;98346.72;;;16.69;51.55
19526;BME280;9907;42.676;26.348;2023-04-20T12:40:17;98346.66;;;16.83;51.79
19526;BME280;9907;42.676;26.348;2023-04-20T12:42:43;98338.97;;;16.80;51.22
19526;BME280;9907;42.676;26.348;2023-04-20T12:45:09;98335.47;;;16.86;52.01
19526;BME280;9907;42.676;26.348;2023-04-20T12:47:35;98340.19;;;16.42;51.32
19526;BME280;9907;42.676;26.348;2023-04-20T12:50:01;98346.91;;;15.95;53.36
19526;BME280;9907;42.676;26.348;2023-04-20T12:52:30;98337.06;;;15.88;55.29
19526;BME280;9907;42.676;26.348;2023-04-20T12:54:59;98342.75;;;15.64;57.21
19526;BME280;9907;42.676;26.348;2023-04-20T12:57:26;98322.06;;;15.49;58.92
19526;BME280;9907;42.676;26.348;2023-04-20T12:59:51;98321.50;;;15.54;59.21
19526;BME280;9907;42.676;26.348;2023-04-20T13:02:17;98320.28;;;15.56;59.27
19526;BME280;9907;42.676;26.348;2023-04-20T13:04:43;98320.03;;;15.51;59.83
19526;BME280;9907;42.676;26.348;2023-04-20T13:07:08;98323.91;;;15.49;60.07